메인 페이지
METAR-TAF:

METAR-TAF

공항 :

마데이라 공항

푼샬, 마데이라 제도, 포르투갈

위도: 32-41-52N, 경도: 016-46-28W, 고도: 59m

현재 날씨관측

예보는 32분 전, 11:30시(UTC)에 발표되었습니다.
북북동13kt풍과 북동풍을 오가는
온도 21°C
습도 78%
기압 1015 hPa
시정: 9000m
고도 1500ft 상공 구름 많음
고도 1600ft 상공 구름 조금, 타워링 적운.

METAR: LPMA 201130Z 02013KT 350V050 9000 BKN015 FEW016TCU 21/17 Q1015

시각: 13:02 (12:02 UTC)

예보

예보는 1 시간 2분 전, 11:00시(UTC)에 발표되었습니다.
예보 대상 시간: 20일 12시부터 21일 12시까지 (UTC)
북북동12kt
시정 10km 이상
고도 1500ft 상공 구름 많음
고도 1800ft 상공 구름 조금, 타워링 적운.
일시적
20일 12시부터 21일 12시까지 (UTC)
시정: 8000m
고도 1300ft 상공 구름 많음
고도 1600ft 상공 구름 조금, 타워링 적운.
소나기
확률 40% :
일시적
20일 12시부터 21일 12시까지 (UTC)
고도 1500ft 상공 구름 보통
전환 중
20일 22시부터 21일 01시까지 (UTC)
여러 방향의 바람 5kt
확률 30% :
일시적
21일 09시부터 21일 12시까지 (UTC)
시정: 3000m
고도 1300ft 상공 구름 많음
고도 2000ft 상공 구름 보통, 적란운.
뇌우, 비

TAF: LPMA 201100Z 2012/2112 02012KT 9999 BKN015 FEW018TCU TEMPO 2012/2112 8000 SHRA BKN013 FEW016TCU PROB40 TEMPO 2012/2112 SCT015 BECMG 2022/2101 VRB05KT PROB30 TEMPO 2109/2112 3000 TSRA BKN013 SCT020CB

4,000개 이상의 공항 관측 자료 및 예보 (METAR 및 TAF 보고).

지도상에서 검색 가능한 기상관측소가 노란 점과 빨간 점으로 표시되어 있습니다.

기상관측소 명을 보려면 표시 위로 마우스를 이동하세요.

날씨 관측과 예보를 보려면 클릭하세요.

지도 변경 : 확대하려면 엑스 표시가 있는 녹색 버튼, 축소하려면 빼기 표시가 있는 녹색 버튼, 다음 페이지의 지도를 보려면 녹색 화살표를 클릭하세요.


METAR-TAF: